sensor_id;sensor_type;location;lat;lon;timestamp;P1;durP1;ratioP1;P2;durP2;ratioP2
65375;SDS011;51976;47.332;9.404;2023-04-21T00:00:00;1.15;;;0.82;;
65375;SDS011;51976;47.332;9.404;2023-04-21T00:02:25;2.35;;;0.70;;
65375;SDS011;51976;47.332;9.404;2023-04-21T00:04:51;1.83;;;0.80;;
65375;SDS011;51976;47.332;9.404;2023-04-21T00:07:17;1.00;;;0.70;;
65375;SDS011;51976;47.332;9.404;2023-04-21T00:09:44;1.13;;;0.77;;
65375;SDS011;51976;47.332;9.404;2023-04-21T00:12:09;1.40;;;0.80;;
65375;SDS011;51976;47.332;9.404;2023-04-21T00:14:35;2.63;;;1.17;;
65375;SDS011;51976;47.332;9.404;2023-04-21T00:17:00;1.35;;;0.88;;
65375;SDS011;51976;47.332;9.404;2023-04-21T00:19:25;1.00;;;0.75;;
65375;SDS011;51976;47.332;9.404;2023-04-21T00:21:52;1.30;;;0.90;;
65375;SDS011;51976;47.332;9.404;2023-04-21T00:24:22;1.38;;;0.95;;
65375;SDS011;51976;47.332;9.404;2023-04-21T00:26:48;1.25;;;1.00;;
65375;SDS011;51976;47.332;9.404;2023-04-21T00:29:13;1.60;;;1.10;;
65375;SDS011;51976;47.332;9.404;2023-04-21T00:31:39;1.52;;;1.10;;
65375;SDS011;51976;47.332;9.404;2023-04-21T00:34:04;1.67;;;1.00;;
65375;SDS011;51976;47.332;9.404;2023-04-21T00:36:30;1.65;;;1.20;;
65375;SDS011;51976;47.332;9.404;2023-04-21T00:38:56;1.92;;;1.48;;
65375;SDS011;51976;47.332;9.404;2023-04-21T00:41:21;5.65;;;3.22;;
65375;SDS011;51976;47.332;9.404;2023-04-21T00:43:59;4.00;;;2.40;;
65375;SDS011;51976;47.332;9.404;2023-04-21T00:46:25;10.05;;;4.25;;
65375;SDS011;51976;47.332;9.404;2023-04-21T00:48:51;7.43;;;3.33;;
65375;SDS011;51976;47.332;9.404;2023-04-21T00:51:17;3.17;;;2.13;;
65375;SDS011;51976;47.332;9.404;2023-04-21T00:53:43;3.00;;;1.90;;
65375;SDS011;51976;47.332;9.404;2023-04-21T00:56:09;1.60;;;1.20;;
65375;SDS011;51976;47.332;9.404;2023-04-21T00:58:34;1.48;;;1.13;;
65375;SDS011;51976;47.332;9.404;2023-04-21T01:01:03;1.88;;;1.10;;
65375;SDS011;51976;47.332;9.404;2023-04-21T01:03:29;1.52;;;1.02;;
65375;SDS011;51976;47.332;9.404;2023-04-21T01:05:55;3.05;;;2.33;;
65375;SDS011;51976;47.332;9.404;2023-04-21T01:08:20;3.13;;;2.20;;
65375;SDS011;51976;47.332;9.404;2023-04-21T01:10:49;2.25;;;1.77;;
65375;SDS011;51976;47.332;9.404;2023-04-21T01:13:16;1.73;;;1.38;;
65375;SDS011;51976;47.332;9.404;2023-04-21T01:15:44;1.55;;;1.17;;
65375;SDS011;51976;47.332;9.404;2023-04-21T01:18:10;2.30;;;1.60;;
65375;SDS011;51976;47.332;9.404;2023-04-21T01:20:35;1.67;;;1.30;;
65375;SDS011;51976;47.332;9.404;2023-04-21T01:23:01;1.70;;;1.30;;
65375;SDS011;51976;47.332;9.404;2023-04-21T01:25:26;1.60;;;1.40;;
65375;SDS011;51976;47.332;9.404;2023-04-21T01:27:52;3.03;;;1.38;;
65375;SDS011;51976;47.332;9.404;2023-04-21T01:30:18;1.48;;;1.05;;
65375;SDS011;51976;47.332;9.404;2023-04-21T01:32:43;2.72;;;1.30;;
65375;SDS011;51976;47.332;9.404;2023-04-21T01:35:09;1.38;;;1.00;;
65375;SDS011;51976;47.332;9.404;2023-04-21T01:37:34;1.50;;;1.08;;
65375;SDS011;51976;47.332;9.404;2023-04-21T01:40:01;1.65;;;1.00;;
65375;SDS011;51976;47.332;9.404;2023-04-21T01:42:29;2.00;;;1.35;;
65375;SDS011;51976;47.332;9.404;2023-04-21T01:44:55;1.40;;;1.10;;
65375;SDS011;51976;47.332;9.404;2023-04-21T01:47:22;3.05;;;1.30;;
65375;SDS011;51976;47.332;9.404;2023-04-21T01:49:48;1.75;;;1.30;;
65375;SDS011;51976;47.332;9.404;2023-04-21T01:52:13;1.50;;;1.00;;
65375;SDS011;51976;47.332;9.404;2023-04-21T01:54:39;1.88;;;1.20;;
65375;SDS011;51976;47.332;9.404;2023-04-21T01:57:14;1.30;;;0.90;;
65375;SDS011;51976;47.332;9.404;2023-04-21T01:59:40;1.67;;;1.25;;
65375;SDS011;51976;47.332;9.404;2023-04-21T02:02:06;2.03;;;1.30;;
65375;SDS011;51976;47.332;9.404;2023-04-21T02:04:31;2.08;;;0.95;;
65375;SDS011;51976;47.332;9.404;2023-04-21T02:06:57;2.15;;;1.10;;
65375;SDS011;51976;47.332;9.404;2023-04-21T02:09:22;3.42;;;1.38;;
65375;SDS011;51976;47.332;9.404;2023-04-21T02:11:48;2.15;;;1.40;;
65375;SDS011;51976;47.332;9.404;2023-04-21T02:14:13;2.13;;;1.35;;
65375;SDS011;51976;47.332;9.404;2023-04-21T02:16:39;2.35;;;1.40;;
65375;SDS011;51976;47.332;9.404;2023-04-21T02:19:04;1.70;;;1.40;;
65375;SDS011;51976;47.332;9.404;2023-04-21T02:21:30;1.55;;;1.00;;
65375;SDS011;51976;47.332;9.404;2023-04-21T02:23:56;1.55;;;1.05;;
65375;SDS011;51976;47.332;9.404;2023-04-21T02:26:21;2.03;;;0.98;;
65375;SDS011;51976;47.332;9.404;2023-04-21T02:28:47;1.65;;;1.10;;
65375;SDS011;51976;47.332;9.404;2023-04-21T02:31:14;1.90;;;1.10;;
65375;SDS011;51976;47.332;9.404;2023-04-21T02:33:40;1.98;;;1.30;;
65375;SDS011;51976;47.332;9.404;2023-04-21T02:36:05;1.23;;;0.73;;
65375;SDS011;51976;47.332;9.404;2023-04-21T02:38:32;1.40;;;1.08;;
65375;SDS011;51976;47.332;9.404;2023-04-21T02:40:57;1.08;;;0.77;;
65375;SDS011;51976;47.332;9.404;2023-04-21T02:43:23;3.00;;;0.82;;
65375;SDS011;51976;47.332;9.404;2023-04-21T02:45:49;1.23;;;0.50;;
65375;SDS011;51976;47.332;9.404;2023-04-21T02:48:14;0.90;;;0.50;;
65375;SDS011;51976;47.332;9.404;2023-04-21T02:50:46;0.90;;;0.55;;
65375;SDS011;51976;47.332;9.404;2023-04-21T02:53:13;0.70;;;0.50;;
65375;SDS011;51976;47.332;9.404;2023-04-21T02:55:39;1.50;;;0.50;;
65375;SDS011;51976;47.332;9.404;2023-04-21T02:58:04;0.90;;;0.50;;
65375;SDS011;51976;47.332;9.404;2023-04-21T03:00:31;1.13;;;0.73;;
65375;SDS011;51976;47.332;9.404;2023-04-21T03:02:59;1.00;;;0.70;;
65375;SDS011;51976;47.332;9.404;2023-04-21T03:05:24;1.88;;;1.20;;
65375;SDS011;51976;47.332;9.404;2023-04-21T03:07:49;1.63;;;0.90;;
65375;SDS011;51976;47.332;9.404;2023-04-21T03:10:15;2.00;;;1.40;;
65375;SDS011;51976;47.332;9.404;2023-04-21T03:12:41;1.60;;;1.30;;
65375;SDS011;51976;47.332;9.404;2023-04-21T03:15:07;2.00;;;1.48;;
65375;SDS011;51976;47.332;9.404;2023-04-21T03:17:32;1.88;;;1.20;;
65375;SDS011;51976;47.332;9.404;2023-04-21T03:19:58;2.08;;;1.17;;
65375;SDS011;51976;47.332;9.404;2023-04-21T03:22:24;4.28;;;1.55;;
65375;SDS011;51976;47.332;9.404;2023-04-21T03:24:50;2.30;;;1.58;;
65375;SDS011;51976;47.332;9.404;2023-04-21T03:27:15;2.28;;;1.55;;
65375;SDS011;51976;47.332;9.404;2023-04-21T03:29:41;2.20;;;1.55;;
65375;SDS011;51976;47.332;9.404;2023-04-21T03:32:09;1.83;;;1.60;;
65375;SDS011;51976;47.332;9.404;2023-04-21T03:34:35;1.90;;;1.40;;
65375;SDS011;51976;47.332;9.404;2023-04-21T03:37:00;1.88;;;1.45;;
65375;SDS011;51976;47.332;9.404;2023-04-21T03:39:26;1.63;;;1.08;;
65375;SDS011;51976;47.332;9.404;2023-04-21T03:41:51;1.63;;;0.90;;
65375;SDS011;51976;47.332;9.404;2023-04-21T03:44:16;3.10;;;1.15;;
65375;SDS011;51976;47.332;9.404;2023-04-21T03:46:42;1.70;;;0.80;;
65375;SDS011;51976;47.332;9.404;2023-04-21T03:49:07;1.05;;;0.68;;
65375;SDS011;51976;47.332;9.404;2023-04-21T03:51:33;1.65;;;0.80;;
65375;SDS011;51976;47.332;9.404;2023-04-21T03:53:58;1.25;;;0.60;;
65375;SDS011;51976;47.332;9.404;2023-04-21T03:56:23;1.50;;;0.77;;
65375;SDS011;51976;47.332;9.404;2023-04-21T03:58:49;1.27;;;0.73;;
65375;SDS011;51976;47.332;9.404;2023-04-21T04:01:14;1.67;;;0.93;;
65375;SDS011;51976;47.332;9.404;2023-04-21T04:03:40;1.63;;;0.82;;
65375;SDS011;51976;47.332;9.404;2023-04-21T04:06:05;2.63;;;1.02;;
65375;SDS011;51976;47.332;9.404;2023-04-21T04:08:31;2.22;;;1.10;;
65375;SDS011;51976;47.332;9.404;2023-04-21T04:10:56;2.33;;;1.10;;
65375;SDS011;51976;47.332;9.404;2023-04-21T04:13:22;2.90;;;1.50;;
65375;SDS011;51976;47.332;9.404;2023-04-21T04:15:50;3.40;;;1.80;;
65375;SDS011;51976;47.332;9.404;2023-04-21T04:18:15;2.47;;;1.40;;
65375;SDS011;51976;47.332;9.404;2023-04-21T04:20:41;1.80;;;1.00;;
65375;SDS011;51976;47.332;9.404;2023-04-21T04:23:06;1.70;;;0.90;;
65375;SDS011;51976;47.332;9.404;2023-04-21T04:25:32;0.90;;;0.70;;
65375;SDS011;51976;47.332;9.404;2023-04-21T04:27:58;2.30;;;0.95;;
65375;SDS011;51976;47.332;9.404;2023-04-21T04:30:26;1.58;;;0.90;;
65375;SDS011;51976;47.332;9.404;2023-04-21T04:32:52;2.05;;;1.30;;
65375;SDS011;51976;47.332;9.404;2023-04-21T04:35:18;1.77;;;0.80;;
65375;SDS011;51976;47.332;9.404;2023-04-21T04:37:43;1.35;;;0.70;;
65375;SDS011;51976;47.332;9.404;2023-04-21T04:40:09;1.60;;;0.90;;
65375;SDS011;51976;47.332;9.404;2023-04-21T04:42:38;1.70;;;0.90;;
65375;SDS011;51976;47.332;9.404;2023-04-21T04:45:06;2.33;;;0.80;;
65375;SDS011;51976;47.332;9.404;2023-04-21T04:47:33;1.65;;;0.95;;
65375;SDS011;51976;47.332;9.404;2023-04-21T04:49:59;1.65;;;0.93;;
65375;SDS011;51976;47.332;9.404;2023-04-21T04:52:24;1.95;;;1.08;;
65375;SDS011;51976;47.332;9.404;2023-04-21T04:54:50;1.70;;;0.90;;
65375;SDS011;51976;47.332;9.404;2023-04-21T04:57:18;2.28;;;1.40;;
65375;SDS011;51976;47.332;9.404;2023-04-21T04:59:44;2.17;;;0.93;;
65375;SDS011;51976;47.332;9.404;2023-04-21T05:02:10;1.50;;;1.00;;
65375;SDS011;51976;47.332;9.404;2023-04-21T05:04:36;2.00;;;0.93;;
65375;SDS011;51976;47.332;9.404;2023-04-21T05:07:02;1.80;;;1.00;;
65375;SDS011;51976;47.332;9.404;2023-04-21T05:09:27;2.40;;;1.17;;
65375;SDS011;51976;47.332;9.404;2023-04-21T05:11:52;2.72;;;1.40;;
65375;SDS011;51976;47.332;9.404;2023-04-21T05:14:18;2.38;;;1.70;;
65375;SDS011;51976;47.332;9.404;2023-04-21T05:16:43;4.70;;;1.70;;
65375;SDS011;51976;47.332;9.404;2023-04-21T05:19:09;2.30;;;1.42;;
65375;SDS011;51976;47.332;9.404;2023-04-21T05:21:34;2.88;;;1.30;;
65375;SDS011;51976;47.332;9.404;2023-04-21T05:24:00;1.60;;;0.80;;
65375;SDS011;51976;47.332;9.404;2023-04-21T05:26:25;1.45;;;0.63;;
65375;SDS011;51976;47.332;9.404;2023-04-21T05:28:52;2.55;;;1.73;;
65375;SDS011;51976;47.332;9.404;2023-04-21T05:31:18;2.42;;;1.23;;
65375;SDS011;51976;47.332;9.404;2023-04-21T05:33:44;3.33;;;1.98;;
65375;SDS011;51976;47.332;9.404;2023-04-21T05:36:09;2.88;;;1.77;;
65375;SDS011;51976;47.332;9.404;2023-04-21T05:38:35;2.55;;;1.60;;
65375;SDS011;51976;47.332;9.404;2023-04-21T05:41:02;2.05;;;1.50;;
65375;SDS011;51976;47.332;9.404;2023-04-21T05:43:29;3.20;;;1.65;;
65375;SDS011;51976;47.332;9.404;2023-04-21T05:45:57;1.70;;;1.00;;
65375;SDS011;51976;47.332;9.404;2023-04-21T05:48:26;1.35;;;0.85;;
65375;SDS011;51976;47.332;9.404;2023-04-21T05:50:52;1.52;;;0.40;;
65375;SDS011;51976;47.332;9.404;2023-04-21T05:53:18;0.90;;;0.50;;
65375;SDS011;51976;47.332;9.404;2023-04-21T05:55:46;2.53;;;0.43;;
65375;SDS011;51976;47.332;9.404;2023-04-21T05:58:12;0.60;;;0.22;;
65375;SDS011;51976;47.332;9.404;2023-04-21T06:00:37;1.88;;;0.60;;
65375;SDS011;51976;47.332;9.404;2023-04-21T06:03:03;4.00;;;0.85;;
65375;SDS011;51976;47.332;9.404;2023-04-21T06:05:28;1.48;;;0.90;;
65375;SDS011;51976;47.332;9.404;2023-04-21T06:07:53;2.95;;;1.30;;
65375;SDS011;51976;47.332;9.404;2023-04-21T06:10:19;2.20;;;1.08;;
65375;SDS011;51976;47.332;9.404;2023-04-21T06:12:45;1.58;;;1.00;;
65375;SDS011;51976;47.332;9.404;2023-04-21T06:15:10;1.80;;;0.70;;
65375;SDS011;51976;47.332;9.404;2023-04-21T06:17:36;1.80;;;0.90;;
65375;SDS011;51976;47.332;9.404;2023-04-21T06:20:01;2.22;;;0.75;;
65375;SDS011;51976;47.332;9.404;2023-04-21T06:22:28;1.27;;;0.63;;
65375;SDS011;51976;47.332;9.404;2023-04-21T06:24:53;1.90;;;0.70;;
65375;SDS011;51976;47.332;9.404;2023-04-21T06:27:18;2.35;;;0.80;;
65375;SDS011;51976;47.332;9.404;2023-04-21T06:29:54;1.75;;;0.73;;
65375;SDS011;51976;47.332;9.404;2023-04-21T06:32:22;0.90;;;0.50;;
65375;SDS011;51976;47.332;9.404;2023-04-21T06:34:47;2.67;;;0.60;;
65375;SDS011;51976;47.332;9.404;2023-04-21T06:37:13;1.60;;;0.63;;
65375;SDS011;51976;47.332;9.404;2023-04-21T06:39:38;1.13;;;0.57;;
65375;SDS011;51976;47.332;9.404;2023-04-21T06:42:03;1.08;;;0.70;;
65375;SDS011;51976;47.332;9.404;2023-04-21T06:44:29;1.02;;;0.43;;
65375;SDS011;51976;47.332;9.404;2023-04-21T06:46:56;2.95;;;1.10;;
65375;SDS011;51976;47.332;9.404;2023-04-21T06:49:21;1.27;;;0.40;;
65375;SDS011;51976;47.332;9.404;2023-04-21T06:51:47;6.03;;;0.50;;
65375;SDS011;51976;47.332;9.404;2023-04-21T06:54:12;2.30;;;0.35;;
65375;SDS011;51976;47.332;9.404;2023-04-21T06:56:38;0.85;;;0.30;;
65375;SDS011;51976;47.332;9.404;2023-04-21T06:59:04;1.20;;;0.47;;
65375;SDS011;51976;47.332;9.404;2023-04-21T07:01:29;5.05;;;0.70;;
65375;SDS011;51976;47.332;9.404;2023-04-21T07:03:54;1.55;;;0.70;;
65375;SDS011;51976;47.332;9.404;2023-04-21T07:06:20;1.77;;;1.17;;
65375;SDS011;51976;47.332;9.404;2023-04-21T07:08:45;4.95;;;1.65;;
65375;SDS011;51976;47.332;9.404;2023-04-21T07:11:11;2.58;;;1.30;;
65375;SDS011;51976;47.332;9.404;2023-04-21T07:13:36;2.42;;;1.65;;
65375;SDS011;51976;47.332;9.404;2023-04-21T07:16:02;2.63;;;1.77;;
65375;SDS011;51976;47.332;9.404;2023-04-21T07:18:27;4.82;;;1.83;;
65375;SDS011;51976;47.332;9.404;2023-04-21T07:20:52;2.92;;;1.80;;
65375;SDS011;51976;47.332;9.404;2023-04-21T07:23:18;3.85;;;2.17;;
65375;SDS011;51976;47.332;9.404;2023-04-21T07:25:43;5.75;;;2.58;;
65375;SDS011;51976;47.332;9.404;2023-04-21T07:28:09;3.78;;;2.60;;
65375;SDS011;51976;47.332;9.404;2023-04-21T07:30:35;3.85;;;2.00;;
65375;SDS011;51976;47.332;9.404;2023-04-21T07:33:00;3.83;;;2.35;;
65375;SDS011;51976;47.332;9.404;2023-04-21T07:35:26;2.60;;;1.98;;
65375;SDS011;51976;47.332;9.404;2023-04-21T07:37:51;6.20;;;1.70;;
65375;SDS011;51976;47.332;9.404;2023-04-21T07:40:17;2.88;;;2.00;;
65375;SDS011;51976;47.332;9.404;2023-04-21T07:42:42;2.72;;;1.88;;
65375;SDS011;51976;47.332;9.404;2023-04-21T07:45:08;2.30;;;1.90;;
65375;SDS011;51976;47.332;9.404;2023-04-21T07:47:33;2.42;;;2.10;;
65375;SDS011;51976;47.332;9.404;2023-04-21T07:49:59;3.38;;;2.33;;
65375;SDS011;51976;47.332;9.404;2023-04-21T07:52:25;2.80;;;2.13;;
65375;SDS011;51976;47.332;9.404;2023-04-21T07:54:50;3.95;;;2.80;;
65375;SDS011;51976;47.332;9.404;2023-04-21T07:57:16;3.50;;;2.72;;
65375;SDS011;51976;47.332;9.404;2023-04-21T07:59:41;3.67;;;3.15;;
65375;SDS011;51976;47.332;9.404;2023-04-21T08:02:07;4.93;;;3.25;;
65375;SDS011;51976;47.332;9.404;2023-04-21T08:04:33;5.05;;;2.97;;
65375;SDS011;51976;47.332;9.404;2023-04-21T08:06:59;3.75;;;2.80;;
65375;SDS011;51976;47.332;9.404;2023-04-21T08:09:24;3.47;;;2.95;;
65375;SDS011;51976;47.332;9.404;2023-04-21T08:11:50;4.13;;;2.78;;
65375;SDS011;51976;47.332;9.404;2023-04-21T08:14:16;4.03;;;2.78;;
65375;SDS011;51976;47.332;9.404;2023-04-21T08:16:41;4.90;;;2.58;;
65375;SDS011;51976;47.332;9.404;2023-04-21T08:19:07;4.32;;;2.60;;
65375;SDS011;51976;47.332;9.404;2023-04-21T08:21:33;4.32;;;2.90;;
65375;SDS011;51976;47.332;9.404;2023-04-21T08:23:59;3.63;;;2.53;;
65375;SDS011;51976;47.332;9.404;2023-04-21T08:26:25;7.57;;;3.08;;
65375;SDS011;51976;47.332;9.404;2023-04-21T08:28:50;6.43;;;3.30;;
65375;SDS011;51976;47.332;9.404;2023-04-21T08:31:17;4.25;;;3.40;;
65375;SDS011;51976;47.332;9.404;2023-04-21T08:33:43;5.43;;;3.35;;
65375;SDS011;51976;47.332;9.404;2023-04-21T08:36:09;4.55;;;3.58;;
65375;SDS011;51976;47.332;9.404;2023-04-21T08:38:35;9.30;;;3.70;;
65375;SDS011;51976;47.332;9.404;2023-04-21T08:41:06;4.45;;;3.47;;
65375;SDS011;51976;47.332;9.404;2023-04-21T08:43:33;6.15;;;4.30;;
65375;SDS011;51976;47.332;9.404;2023-04-21T08:45:59;6.72;;;3.92;;
65375;SDS011;51976;47.332;9.404;2023-04-21T08:48:30;8.20;;;4.18;;
65375;SDS011;51976;47.332;9.404;2023-04-21T08:51:00;5.50;;;3.35;;
65375;SDS011;51976;47.332;9.404;2023-04-21T08:53:26;5.10;;;4.03;;
65375;SDS011;51976;47.332;9.404;2023-04-21T08:55:51;6.35;;;4.50;;
65375;SDS011;51976;47.332;9.404;2023-04-21T08:58:19;5.55;;;3.53;;
65375;SDS011;51976;47.332;9.404;2023-04-21T09:00:46;5.00;;;3.92;;
65375;SDS011;51976;47.332;9.404;2023-04-21T09:03:13;5.60;;;4.47;;
65375;SDS011;51976;47.332;9.404;2023-04-21T09:05:55;5.88;;;3.92;;
65375;SDS011;51976;47.332;9.404;2023-04-21T09:08:23;8.15;;;4.45;;
65375;SDS011;51976;47.332;9.404;2023-04-21T09:10:50;5.15;;;3.45;;
65375;SDS011;51976;47.332;9.404;2023-04-21T09:13:17;5.70;;;4.22;;
65375;SDS011;51976;47.332;9.404;2023-04-21T09:15:46;4.25;;;3.45;;
65375;SDS011;51976;47.332;9.404;2023-04-21T09:18:20;5.38;;;3.80;;
65375;SDS011;51976;47.332;9.404;2023-04-21T09:20:48;5.97;;;4.05;;
65375;SDS011;51976;47.332;9.404;2023-04-21T09:23:14;3.67;;;2.72;;
65375;SDS011;51976;47.332;9.404;2023-04-21T09:25:42;4.30;;;2.55;;
65375;SDS011;51976;47.332;9.404;2023-04-21T09:28:10;6.90;;;2.88;;
65375;SDS011;51976;47.332;9.404;2023-04-21T09:30:37;5.40;;;3.00;;
65375;SDS011;51976;47.332;9.404;2023-04-21T09:33:03;4.65;;;3.28;;
65375;SDS011;51976;47.332;9.404;2023-04-21T09:35:33;5.07;;;2.65;;
65375;SDS011;51976;47.332;9.404;2023-04-21T09:37:59;3.30;;;2.42;;
65375;SDS011;51976;47.332;9.404;2023-04-21T09:40:26;4.65;;;2.95;;
65375;SDS011;51976;47.332;9.404;2023-04-21T09:42:53;3.97;;;3.10;;
65375;SDS011;51976;47.332;9.404;2023-04-21T09:45:19;4.13;;;3.10;;
65375;SDS011;51976;47.332;9.404;2023-04-21T09:47:47;0.93;;;0.57;;
65375;SDS011;51976;47.332;9.404;2023-04-21T09:50:15;0.47;;;0.30;;
65375;SDS011;51976;47.332;9.404;2023-04-21T09:52:41;0.88;;;0.20;;
65375;SDS011;51976;47.332;9.404;2023-04-21T09:55:11;0.20;;;0.10;;
65375;SDS011;51976;47.332;9.404;2023-04-21T09:57:38;0.43;;;0.20;;
65375;SDS011;51976;47.332;9.404;2023-04-21T10:00:06;5.75;;;0.17;;
65375;SDS011;51976;47.332;9.404;2023-04-21T10:02:35;0.50;;;0.00;;
65375;SDS011;51976;47.332;9.404;2023-04-21T10:05:06;2.25;;;0.10;;
65375;SDS011;51976;47.332;9.404;2023-04-21T10:07:33;0.73;;;0.40;;
65375;SDS011;51976;47.332;9.404;2023-04-21T10:09:59;0.30;;;0.10;;
65375;SDS011;51976;47.332;9.404;2023-04-21T10:12:25;0.38;;;0.10;;
65375;SDS011;51976;47.332;9.404;2023-04-21T10:14:51;0.10;;;0.00;;
65375;SDS011;51976;47.332;9.404;2023-04-21T10:17:21;0.03;;;0.00;;
65375;SDS011;51976;47.332;9.404;2023-04-21T10:19:52;0.80;;;0.10;;
65375;SDS011;51976;47.332;9.404;2023-04-21T10:22:27;0.00;;;0.00;;
65375;SDS011;51976;47.332;9.404;2023-04-21T10:24:55;3.40;;;0.10;;
65375;SDS011;51976;47.332;9.404;2023-04-21T10:27:36;0.10;;;0.10;;
65375;SDS011;51976;47.332;9.404;2023-04-21T10:30:18;0.05;;;0.00;;
65375;SDS011;51976;47.332;9.404;2023-04-21T10:32:48;0.30;;;0.10;;
65375;SDS011;51976;47.332;9.404;2023-04-21T10:35:36;0.40;;;0.10;;
65375;SDS011;51976;47.332;9.404;2023-04-21T10:38:32;0.10;;;0.00;;
65375;SDS011;51976;47.332;9.404;2023-04-21T10:41:24;0.20;;;0.10;;
65375;SDS011;51976;47.332;9.404;2023-04-21T10:43:51;0.10;;;0.00;;
65375;SDS011;51976;47.332;9.404;2023-04-21T10:46:56;0.10;;;0.00;;
65375;SDS011;51976;47.332;9.404;2023-04-21T10:49:04;0.10;;;0.10;;
65375;SDS011;51976;47.332;9.404;2023-04-21T10:51:57;0.28;;;0.10;;
65375;SDS011;51976;47.332;9.404;2023-04-21T10:54:42;0.00;;;0.00;;
65375;SDS011;51976;47.332;9.404;2023-04-21T10:57:29;0.10;;;0.00;;
65375;SDS011;51976;47.332;9.404;2023-04-21T10:59:56;0.10;;;0.03;;
65375;SDS011;51976;47.332;9.404;2023-04-21T11:02:22;0.10;;;0.00;;
65375;SDS011;51976;47.332;9.404;2023-04-21T11:05:16;0.10;;;0.00;;
65375;SDS011;51976;47.332;9.404;2023-04-21T11:07:41;0.10;;;0.00;;
65375;SDS011;51976;47.332;9.404;2023-04-21T11:10:07;0.28;;;0.03;;
65375;SDS011;51976;47.332;9.404;2023-04-21T11:12:37;0.00;;;0.00;;
65375;SDS011;51976;47.332;9.404;2023-04-21T11:15:07;1.00;;;0.15;;
65375;SDS011;51976;47.332;9.404;2023-04-21T11:17:34;0.00;;;0.00;;
65375;SDS011;51976;47.332;9.404;2023-04-21T11:20:02;0.00;;;0.00;;
65375;SDS011;51976;47.332;9.404;2023-04-21T11:22:28;0.10;;;0.00;;
65375;SDS011;51976;47.332;9.404;2023-04-21T11:24:55;0.65;;;0.10;;
65375;SDS011;51976;47.332;9.404;2023-04-21T11:27:22;0.10;;;0.00;;
65375;SDS011;51976;47.332;9.404;2023-04-21T11:29:50;0.05;;;0.00;;
65375;SDS011;51976;47.332;9.404;2023-04-21T11:32:15;0.20;;;0.10;;
65375;SDS011;51976;47.332;9.404;2023-04-21T11:34:42;0.10;;;0.03;;
65375;SDS011;51976;47.332;9.404;2023-04-21T11:37:08;0.80;;;0.03;;
65375;SDS011;51976;47.332;9.404;2023-04-21T11:39:41;0.10;;;0.00;;
65375;SDS011;51976;47.332;9.404;2023-04-21T11:42:08;0.08;;;0.00;;
65375;SDS011;51976;47.332;9.404;2023-04-21T11:44:37;0.00;;;0.00;;
65375;SDS011;51976;47.332;9.404;2023-04-21T11:47:14;0.10;;;0.08;;
65375;SDS011;51976;47.332;9.404;2023-04-21T11:49:44;0.00;;;0.00;;
65375;SDS011;51976;47.332;9.404;2023-04-21T11:52:28;0.05;;;0.00;;
65375;SDS011;51976;47.332;9.404;2023-04-21T11:55:03;0.20;;;0.10;;
65375;SDS011;51976;47.332;9.404;2023-04-21T11:57:31;0.55;;;0.10;;
65375;SDS011;51976;47.332;9.404;2023-04-21T11:59:57;0.10;;;0.10;;
65375;SDS011;51976;47.332;9.404;2023-04-21T12:02:27;1.35;;;0.13;;
65375;SDS011;51976;47.332;9.404;2023-04-21T12:05:01;0.00;;;0.00;;
65375;SDS011;51976;47.332;9.404;2023-04-21T12:07:30;0.00;;;0.00;;
65375;SDS011;51976;47.332;9.404;2023-04-21T12:10:07;0.00;;;0.00;;
65375;SDS011;51976;47.332;9.404;2023-04-21T12:12:38;1.45;;;0.10;;
65375;SDS011;51976;47.332;9.404;2023-04-21T12:15:05;1.98;;;0.10;;
65375;SDS011;51976;47.332;9.404;2023-04-21T12:17:43;0.20;;;0.00;;
65375;SDS011;51976;47.332;9.404;2023-04-21T12:20:10;0.63;;;0.10;;
65375;SDS011;51976;47.332;9.404;2023-04-21T12:22:36;0.30;;;0.10;;
65375;SDS011;51976;47.332;9.404;2023-04-21T12:25:01;0.20;;;0.05;;
65375;SDS011;51976;47.332;9.404;2023-04-21T12:27:27;0.17;;;0.10;;
65375;SDS011;51976;47.332;9.404;2023-04-21T12:29:52;0.03;;;0.00;;
65375;SDS011;51976;47.332;9.404;2023-04-21T12:32:18;0.20;;;0.10;;
65375;SDS011;51976;47.332;9.404;2023-04-21T12:34:44;0.10;;;0.00;;
65375;SDS011;51976;47.332;9.404;2023-04-21T12:37:09;0.10;;;0.03;;
65375;SDS011;51976;47.332;9.404;2023-04-21T12:39:35;0.55;;;0.10;;
65375;SDS011;51976;47.332;9.404;2023-04-21T12:42:00;0.20;;;0.10;;
65375;SDS011;51976;47.332;9.404;2023-04-21T12:44:26;0.20;;;0.10;;
65375;SDS011;51976;47.332;9.404;2023-04-21T12:46:52;0.30;;;0.10;;
65375;SDS011;51976;47.332;9.404;2023-04-21T12:49:17;0.00;;;0.00;;
65375;SDS011;51976;47.332;9.404;2023-04-21T12:51:43;0.30;;;0.10;;
65375;SDS011;51976;47.332;9.404;2023-04-21T12:54:10;0.15;;;0.03;;
65375;SDS011;51976;47.332;9.404;2023-04-21T12:56:39;0.00;;;0.00;;
65375;SDS011;51976;47.332;9.404;2023-04-21T12:59:06;0.25;;;0.10;;
65375;SDS011;51976;47.332;9.404;2023-04-21T13:01:32;0.13;;;0.10;;
65375;SDS011;51976;47.332;9.404;2023-04-21T13:03:57;0.10;;;0.10;;
65375;SDS011;51976;47.332;9.404;2023-04-21T13:06:23;3.38;;;0.32;;
65375;SDS011;51976;47.332;9.404;2023-04-21T13:08:49;0.20;;;0.10;;
65375;SDS011;51976;47.332;9.404;2023-04-21T13:11:14;0.28;;;0.10;;
65375;SDS011;51976;47.332;9.404;2023-04-21T13:13:39;0.30;;;0.10;;
65375;SDS011;51976;47.332;9.404;2023-04-21T13:16:05;0.00;;;0.00;;
65375;SDS011;51976;47.332;9.404;2023-04-21T13:18:31;0.10;;;0.10;;
65375;SDS011;51976;47.332;9.404;2023-04-21T13:20:58;1.30;;;0.08;;
65375;SDS011;51976;47.332;9.404;2023-04-21T13:23:24;0.10;;;0.03;;
65375;SDS011;51976;47.332;9.404;2023-04-21T13:25:49;0.15;;;0.05;;
65375;SDS011;51976;47.332;9.404;2023-04-21T13:28:16;1.00;;;0.00;;
65375;SDS011;51976;47.332;9.404;2023-04-21T13:30:43;0.10;;;0.08;;
65375;SDS011;51976;47.332;9.404;2023-04-21T13:33:09;0.22;;;0.10;;
65375;SDS011;51976;47.332;9.404;2023-04-21T13:35:35;1.45;;;0.10;;
65375;SDS011;51976;47.332;9.404;2023-04-21T13:38:00;0.00;;;0.00;;
65375;SDS011;51976;47.332;9.404;2023-04-21T13:40:26;0.08;;;0.08;;
65375;SDS011;51976;47.332;9.404;2023-04-21T13:42:51;0.20;;;0.10;;
65375;SDS011;51976;47.332;9.404;2023-04-21T13:45:17;0.08;;;0.00;;
65375;SDS011;51976;47.332;9.404;2023-04-21T13:47:43;0.10;;;0.00;;
65375;SDS011;51976;47.332;9.404;2023-04-21T13:50:08;0.35;;;0.10;;
65375;SDS011;51976;47.332;9.404;2023-04-21T13:52:34;0.10;;;0.05;;
65375;SDS011;51976;47.332;9.404;2023-04-21T13:55:03;0.88;;;0.20;;
65375;SDS011;51976;47.332;9.404;2023-04-21T13:57:30;0.30;;;0.20;;
65375;SDS011;51976;47.332;9.404;2023-04-21T13:59:56;1.25;;;0.10;;
65375;SDS011;51976;47.332;9.404;2023-04-21T14:02:21;0.13;;;0.08;;
65375;SDS011;51976;47.332;9.404;2023-04-21T14:04:48;0.20;;;0.10;;
65375;SDS011;51976;47.332;9.404;2023-04-21T14:07:14;0.20;;;0.10;;
65375;SDS011;51976;47.332;9.404;2023-04-21T14:09:42;0.22;;;0.10;;
65375;SDS011;51976;47.332;9.404;2023-04-21T14:12:07;1.05;;;0.38;;
65375;SDS011;51976;47.332;9.404;2023-04-21T14:14:34;1.73;;;0.20;;
65375;SDS011;51976;47.332;9.404;2023-04-21T14:17:02;1.00;;;0.80;;
65375;SDS011;51976;47.332;9.404;2023-04-21T14:19:50;4.60;;;3.03;;
65375;SDS011;51976;47.332;9.404;2023-04-21T14:22:16;5.15;;;3.40;;
65375;SDS011;51976;47.332;9.404;2023-04-21T14:24:41;4.68;;;3.22;;
65375;SDS011;51976;47.332;9.404;2023-04-21T14:27:06;4.07;;;3.35;;
65375;SDS011;51976;47.332;9.404;2023-04-21T14:29:32;4.93;;;3.63;;
65375;SDS011;51976;47.332;9.404;2023-04-21T14:31:57;8.80;;;3.97;;
65375;SDS011;51976;47.332;9.404;2023-04-21T14:34:23;7.80;;;3.35;;
65375;SDS011;51976;47.332;9.404;2023-04-21T14:36:52;7.20;;;3.60;;
65375;SDS011;51976;47.332;9.404;2023-04-21T14:39:17;4.07;;;3.67;;
65375;SDS011;51976;47.332;9.404;2023-04-21T14:41:43;6.70;;;3.80;;
65375;SDS011;51976;47.332;9.404;2023-04-21T14:44:09;6.00;;;3.63;;
65375;SDS011;51976;47.332;9.404;2023-04-21T14:46:34;4.07;;;3.60;;